Time;durP1;ratioP1;P1;durP2;ratioP2;P2;SDS_P1;SDS_P2;PMS_P1;PMS_P2;Temp;Humidity;BMP_temperature;BMP_pressure;BME280_temperature;BME280_humidity;BME280_pressure;Samples;Min_cycle;Max_cycle;Signal;HPM_P1;HPM_P2
2023/03/15 00:00:22;;;;;;;13.93;2.20;;;;;;;3.17;100.00;98603.75;5129916;27;20255;-79
2023/03/15 00:02:51;;;;;;;5.97;1.57;;;;;;;3.35;100.00;98610.81;5126864;27;20293;-78
2023/03/15 00:05:20;;;;;;;8.47;2.13;;;;;;;3.12;100.00;98608.34;5132991;27;20251;-78
2023/03/15 00:07:49;;;;;;;12.30;2.37;;;;;;;3.16;100.00;98615.16;5123033;27;20263;-79
2023/03/15 00:10:18;;;;;;;5.27;2.20;;;;;;;3.01;100.00;98618.44;5131579;27;20267;-79
2023/03/15 00:12:46;;;;;;;8.13;2.53;;;;;;;3.01;100.00;98613.19;5087419;28;20281;-78
2023/03/15 00:15:16;;;;;;;9.87;2.57;;;;;;;2.86;100.00;98625.13;5082756;28;20264;-79
2023/03/15 00:17:45;;;;;;;8.60;2.40;;;;;;;2.70;100.00;98630.16;5087013;28;20233;-79
2023/03/15 00:20:15;;;;;;;8.10;2.73;;;;;;;2.65;100.00;98636.47;5089804;28;20188;-79
2023/03/15 00:22:43;;;;;;;9.43;2.10;;;;;;;2.70;100.00;98637.13;5082390;28;20196;-78
2023/03/15 00:25:11;;;;;;;7.70;2.07;;;;;;;2.52;100.00;98634.38;5082243;28;20202;-78
2023/03/15 00:27:40;;;;;;;8.53;1.87;;;;;;;2.66;100.00;98644.25;5087516;28;20195;-79
2023/03/15 00:30:10;;;;;;;6.93;2.13;;;;;;;2.66;100.00;98649.47;5091135;27;20217;-78
2023/03/15 00:32:40;;;;;;;11.77;1.87;;;;;;;2.77;100.00;98657.75;5130789;27;20222;-79
2023/03/15 00:35:11;;;;;;;7.97;2.00;;;;;;;2.63;100.00;98659.22;5124938;27;20269;-78
2023/03/15 00:37:40;;;;;;;10.70;2.57;;;;;;;2.79;100.00;98661.13;5127982;27;20211;-79
2023/03/15 00:40:11;;;;;;;11.73;2.13;;;;;;;2.61;100.00;98655.81;5122776;27;20247;-79
2023/03/15 00:42:40;;;;;;;8.17;2.40;;;;;;;2.60;100.00;98654.94;5131624;27;20190;-78
2023/03/15 00:45:10;;;;;;;13.67;2.30;;;;;;;2.57;100.00;98655.94;5127962;27;20648;-79
2023/03/15 00:47:38;;;;;;;10.53;2.00;;;;;;;2.78;100.00;98658.59;5128123;27;20186;-78
2023/03/15 00:50:09;;;;;;;6.33;1.67;;;;;;;2.86;100.00;98661.75;5128615;27;20182;-78
2023/03/15 00:52:38;;;;;;;8.50;2.20;;;;;;;2.66;100.00;98666.94;5133390;27;20214;-79
2023/03/15 00:55:13;;;;;;;10.37;2.13;;;;;;;2.80;100.00;98669.88;5130896;27;20193;-78
2023/03/15 00:57:41;;;;;;;4.67;1.83;;;;;;;2.85;100.00;98676.59;5133726;27;20189;-79
2023/03/15 01:00:13;;;;;;;8.20;1.77;;;;;;;2.85;100.00;98673.13;5129139;28;20205;-79
2023/03/15 01:02:42;;;;;;;8.63;1.83;;;;;;;2.80;100.00;98672.47;5022492;28;20252;-78
2023/03/15 01:05:13;;;;;;;6.07;2.03;;;;;;;2.61;100.00;98669.75;5021029;28;20348;-79
2023/03/15 01:07:44;;;;;;;11.23;2.37;;;;;;;2.65;100.00;98673.94;5024596;28;20313;-79
2023/03/15 01:10:14;;;;;;;7.30;1.83;;;;;;;2.69;100.00;98665.03;5028468;28;20198;-79
2023/03/15 01:12:43;;;;;;;8.23;2.10;;;;;;;2.11;100.00;98674.28;5028328;28;20217;-79
2023/03/15 01:15:14;;;;;;;8.23;2.07;;;;;;;1.93;100.00;98666.25;5020353;28;20225;-78
2023/03/15 01:17:42;;;;;;;4.93;1.67;;;;;;;1.89;100.00;98679.47;5022448;28;20284;-78
2023/03/15 01:20:14;;;;;;;7.53;1.90;;;;;;;1.72;100.00;98677.47;4996341;28;20186;-79
2023/03/15 01:22:43;;;;;;;9.17;1.53;;;;;;;1.64;100.00;98676.88;5024660;28;20206;-79
2023/03/15 01:25:12;;;;;;;6.10;1.90;;;;;;;1.70;100.00;98681.88;5026959;28;20194;-79
2023/03/15 01:27:40;;;;;;;9.03;2.10;;;;;;;1.76;100.00;98688.66;5091733;28;20216;-79
2023/03/15 01:30:10;;;;;;;6.60;1.83;;;;;;;2.01;100.00;98685.06;5125920;27;20195;-78
2023/03/15 01:32:41;;;;;;;8.40;2.07;;;;;;;2.18;100.00;98681.00;5137673;27;20241;-78
2023/03/15 01:35:10;;;;;;;10.20;1.93;;;;;;;2.27;100.00;98680.66;5126521;27;20203;-78
2023/03/15 01:37:44;;;;;;;10.00;1.90;;;;;;;2.12;100.00;98681.22;5125991;27;20194;-79
2023/03/15 01:40:13;;;;;;;9.50;2.20;;;;;;;1.94;100.00;98693.22;5137217;27;20222;-78
2023/03/15 01:43:14;;;;;;;10.77;1.97;;;;;;;2.17;100.00;98684.53;5134272;27;20198;-79
2023/03/15 01:46:03;;;;;;;8.53;2.17;;;;;;;2.05;100.00;98685.00;5134065;27;20189;-78
2023/03/15 01:48:37;;;;;;;7.87;2.00;;;;;;;2.13;100.00;98693.38;5136611;27;20254;-78
2023/03/15 01:51:11;;;;;;;7.93;2.00;;;;;;;1.89;100.00;98682.06;5135102;27;20362;-79
2023/03/15 01:53:44;;;;;;;7.20;2.00;;;;;;;1.93;100.00;98700.22;5128803;27;20275;-79
2023/03/15 01:56:15;;;;;;;9.57;2.23;;;;;;;2.16;100.00;98696.72;5136608;27;20198;-79
2023/03/15 01:58:46;;;;;;;6.97;2.10;;;;;;;2.16;100.00;98693.25;5137012;27;20202;-79
2023/03/15 02:01:16;;;;;;;12.80;2.80;;;;;;;1.83;100.00;98703.19;5129890;27;20247;-78
2023/03/15 02:03:47;;;;;;;10.60;2.00;;;;;;;2.04;100.00;98694.59;5131296;27;20197;-79
2023/03/15 02:06:19;;;;;;;7.63;2.00;;;;;;;2.13;100.00;98703.84;5128166;27;20281;-79
2023/03/15 02:08:53;;;;;;;8.27;2.17;;;;;;;2.23;100.00;98699.97;5129049;27;20194;-79
2023/03/15 02:11:24;;;;;;;11.57;2.03;;;;;;;2.14;100.00;98690.72;5083999;27;20238;-78
2023/03/15 02:13:54;;;;;;;10.03;2.30;;;;;;;2.19;100.00;98696.59;5132519;27;20220;-79
2023/03/15 02:16:23;;;;;;;8.07;2.00;;;;;;;2.18;100.00;98707.97;5131120;27;20203;-79
2023/03/15 02:18:52;;;;;;;8.70;2.30;;;;;;;2.03;100.00;98692.88;5135208;27;20194;-79
2023/03/15 02:21:36;;;;;;;7.43;2.13;;;;;;;2.22;100.00;98701.75;5133081;27;20221;-78
2023/03/15 02:24:19;;;;;;;11.07;2.43;;;;;;;2.32;100.00;98696.13;5136589;27;20198;-78
2023/03/15 02:26:52;;;;;;;8.57;2.00;;;;;;;2.14;100.00;98697.72;5134791;27;20194;-78
2023/03/15 02:29:25;;;;;;;10.37;1.90;;;;;;;2.29;100.00;98703.19;5131474;27;20198;-78
2023/03/15 02:31:54;;;;;;;7.30;2.00;;;;;;;2.34;100.00;98699.56;5126772;27;20701;-78
2023/03/15 02:34:24;;;;;;;10.97;2.20;;;;;;;2.07;100.00;98706.66;5095752;27;20198;-79
2023/03/15 02:36:54;;;;;;;15.77;2.77;;;;;;;1.87;100.00;98720.44;5128668;27;20193;-78
2023/03/15 02:39:23;;;;;;;7.97;2.00;;;;;;;1.87;100.00;98720.44;5123412;27;20732;-78
2023/03/15 02:41:53;;;;;;;8.33;2.37;;;;;;;1.84;100.00;98715.34;5126928;27;20191;-78
2023/03/15 02:44:30;;;;;;;7.50;2.27;;;;;;;1.89;100.00;98722.09;5156915;27;20212;-78
2023/03/15 02:47:04;;;;;;;11.13;2.03;;;;;;;1.75;100.00;98726.13;5148847;27;20223;-79
2023/03/15 02:49:37;;;;;;;10.67;2.80;;;;;;;1.76;100.00;98725.22;5150613;27;20194;-79
2023/03/15 02:52:06;;;;;;;11.60;2.53;;;;;;;1.66;100.00;98729.91;5150082;27;20210;-79
2023/03/15 02:54:35;;;;;;;12.17;2.40;;;;;;;1.64;100.00;98729.06;5153222;27;20186;-78
2023/03/15 02:57:04;;;;;;;12.03;2.10;;;;;;;1.68;100.00;98738.53;5152089;27;20239;-79
2023/03/15 02:59:33;;;;;;;11.77;2.37;;;;;;;1.68;100.00;98743.75;5149947;27;20193;-78
2023/03/15 03:02:01;;;;;;;11.00;2.30;;;;;;;1.67;100.00;98742.91;5152434;27;20201;-78
2023/03/15 03:04:30;;;;;;;10.67;2.90;;;;;;;1.75;100.00;98740.03;5151032;27;20297;-78
2023/03/15 03:06:59;;;;;;;13.60;2.47;;;;;;;1.68;100.00;98744.59;5152177;27;20655;-78
2023/03/15 03:09:27;;;;;;;8.87;2.57;;;;;;;1.80;100.00;98761.59;5148519;27;20190;-78
2023/03/15 03:11:56;;;;;;;8.73;2.57;;;;;;;1.67;100.00;98755.94;5150847;27;20699;-78
2023/03/15 03:14:25;;;;;;;9.87;2.50;;;;;;;1.80;100.00;98755.50;5152078;27;20206;-79
2023/03/15 03:16:55;;;;;;;12.37;3.30;;;;;;;1.84;100.00;98773.66;5136515;27;20205;-79
2023/03/15 03:19:24;;;;;;;6.83;2.43;;;;;;;1.93;100.00;98775.94;5154768;27;20253;-79
2023/03/15 03:21:53;;;;;;;12.07;2.40;;;;;;;1.85;100.00;98782.31;5153170;27;20197;-79
2023/03/15 03:24:24;;;;;;;12.20;2.47;;;;;;;1.85;100.00;98777.09;5151272;27;20198;-78
2023/03/15 03:26:56;;;;;;;9.17;2.50;;;;;;;1.76;100.00;98782.63;5147625;27;20258;-79
2023/03/15 03:29:25;;;;;;;11.43;2.57;;;;;;;1.67;100.00;98789.88;5145506;27;20205;-79
2023/03/15 03:31:55;;;;;;;13.77;2.50;;;;;;;1.95;100.00;98786.31;5148771;27;20204;-78
2023/03/15 03:34:24;;;;;;;9.03;2.20;;;;;;;1.72;100.00;98802.75;5149567;27;20217;-79
2023/03/15 03:36:52;;;;;;;6.73;2.07;;;;;;;1.81;100.00;98793.75;5151553;27;20189;-79
2023/03/15 03:39:20;;;;;;;13.47;1.97;;;;;;;1.71;100.00;98801.06;5152886;27;20226;-79
2023/03/15 03:41:48;;;;;;;10.03;2.50;;;;;;;1.65;100.00;98807.34;5150040;27;20198;-78
2023/03/15 03:44:17;;;;;;;9.27;2.30;;;;;;;1.74;100.00;98808.81;5150056;27;20251;-78
2023/03/15 03:46:45;;;;;;;8.57;2.03;;;;;;;1.95;100.00;98807.22;5152236;27;20190;-78
2023/03/15 03:49:15;;;;;;;11.10;2.20;;;;;;;1.94;100.00;98810.72;5143448;27;20208;-78
2023/03/15 03:51:43;;;;;;;12.77;2.70;;;;;;;1.97;100.00;98816.69;5155257;27;20250;-79
2023/03/15 03:54:11;;;;;;;9.33;2.33;;;;;;;1.92;100.00;98817.75;5150419;27;20217;-78
2023/03/15 03:56:40;;;;;;;9.33;2.70;;;;;;;1.83;100.00;98829.34;5152309;27;20197;-78
2023/03/15 03:59:09;;;;;;;11.60;2.40;;;;;;;1.92;100.00;98828.19;5153289;27;20189;-79
2023/03/15 04:01:38;;;;;;;14.03;2.77;;;;;;;1.87;100.00;98823.13;5152469;27;20235;-79
2023/03/15 04:04:12;;;;;;;10.50;2.77;;;;;;;1.83;100.00;98826.72;5146728;27;20195;-79
2023/03/15 04:06:44;;;;;;;9.33;2.40;;;;;;;1.91;100.00;98822.09;5152384;27;20200;-78
2023/03/15 04:09:13;;;;;;;6.47;2.73;;;;;;;1.75;100.00;98838.38;5145591;27;20288;-78
2023/03/15 04:11:43;;;;;;;10.63;2.60;;;;;;;1.77;100.00;98854.81;5150932;27;20193;-78
2023/03/15 04:14:12;;;;;;;11.20;3.30;;;;;;;1.77;100.00;98847.00;5152165;27;20239;-78
2023/03/15 04:16:41;;;;;;;13.57;3.27;;;;;;;1.85;100.00;98851.06;5155447;27;20194;-78
2023/03/15 04:19:11;;;;;;;11.17;3.20;;;;;;;1.84;100.00;98844.13;5148809;27;20193;-78
2023/03/15 04:21:46;;;;;;;10.93;3.23;;;;;;;1.89;100.00;98846.56;5145770;27;20245;-78
2023/03/15 04:24:16;;;;;;;9.00;2.70;;;;;;;1.89;100.00;98851.78;5147899;27;20200;-78
2023/03/15 04:26:44;;;;;;;10.60;2.87;;;;;;;1.88;100.00;98861.41;5151886;27;20202;-78
2023/03/15 04:29:14;;;;;;;12.03;3.43;;;;;;;1.87;100.00;98854.47;5151700;27;20198;-78
2023/03/15 04:31:42;;;;;;;9.63;2.83;;;;;;;1.97;100.00;98860.22;5150296;27;20198;-79
2023/03/15 04:34:12;;;;;;;11.00;3.23;;;;;;;1.87;100.00;98864.06;5147749;27;20210;-78
2023/03/15 04:36:42;;;;;;;14.47;3.13;;;;;;;1.88;100.00;98861.41;5143716;27;20208;-79
2023/03/15 04:39:11;;;;;;;10.00;2.90;;;;;;;1.93;100.00;98871.66;5146424;27;20764;-78
2023/03/15 04:41:41;;;;;;;7.90;2.90;;;;;;;1.94;100.00;98870.78;5148069;27;20299;-78
2023/03/15 04:44:09;;;;;;;9.20;3.10;;;;;;;1.91;100.00;98869.13;5150213;27;20269;-79
2023/03/15 04:46:39;;;;;;;12.67;3.60;;;;;;;1.86;100.00;98868.44;5149138;27;20197;-78
2023/03/15 04:49:07;;;;;;;8.57;2.93;;;;;;;1.85;100.00;98869.34;5147664;27;20194;-78
2023/03/15 04:51:35;;;;;;;13.13;3.83;;;;;;;1.97;100.00;98860.22;5146291;27;20201;-78
2023/03/15 04:54:03;;;;;;;10.90;3.20;;;;;;;1.90;100.00;98870.03;5148544;27;20216;-79
2023/03/15 04:56:32;;;;;;;11.57;3.33;;;;;;;1.90;100.00;98867.41;5150294;27;20190;-78
2023/03/15 04:59:02;;;;;;;11.53;3.63;;;;;;;2.03;100.00;98866.97;5148711;27;20193;-78
2023/03/15 05:01:31;;;;;;;8.17;3.60;;;;;;;1.96;100.00;98868.97;5087325;28;20184;-78
2023/03/15 05:04:00;;;;;;;13.13;4.23;;;;;;;1.78;100.00;98862.59;5082371;28;20229;-78
2023/03/15 05:06:28;;;;;;;8.57;3.53;;;;;;;1.82;100.00;98872.03;5086046;28;20200;-78
2023/03/15 05:08:56;;;;;;;13.63;3.90;;;;;;;1.64;100.00;98878.72;5083862;28;20199;-78
2023/03/15 05:11:25;;;;;;;19.83;5.00;;;;;;;1.56;100.00;98883.34;5086752;28;20188;-78
2023/03/15 05:13:53;;;;;;;11.60;3.80;;;;;;;1.67;100.00;98891.69;5087558;28;20290;-78
2023/03/15 05:16:23;;;;;;;13.43;4.40;;;;;;;1.59;100.00;98890.22;5086161;28;20237;-78
2023/03/15 05:18:52;;;;;;;12.53;4.33;;;;;;;1.73;100.00;98895.81;5090619;27;20276;-78
2023/03/15 05:21:22;;;;;;;14.60;4.40;;;;;;;1.78;100.00;98895.69;5147524;27;20189;-78
2023/03/15 05:23:50;;;;;;;12.83;4.40;;;;;;;1.60;100.00;98897.13;5151368;27;20198;-78
2023/03/15 05:26:21;;;;;;;16.80;4.53;;;;;;;1.70;100.00;98895.94;5150346;27;20238;-78
2023/03/15 05:28:51;;;;;;;16.50;5.00;;;;;;;1.90;100.00;98896.13;5149246;27;20646;-78
2023/03/15 05:31:20;;;;;;;12.73;5.13;;;;;;;1.71;100.00;98897.63;5148665;27;20250;-78
2023/03/15 05:33:53;;;;;;;15.97;5.50;;;;;;;2.03;100.00;98896.59;5145984;27;20213;-78
2023/03/15 05:36:21;;;;;;;14.43;5.27;;;;;;;2.14;100.00;98893.63;5029800;28;20248;-77
2023/03/15 05:38:50;;;;;;;13.80;5.30;;;;;;;2.34;100.00;98890.31;5029881;28;20703;-78
2023/03/15 05:41:18;;;;;;;13.43;6.10;;;;;;;2.32;100.00;98890.38;5025653;28;20228;-78
2023/03/15 05:43:47;;;;;;;16.00;6.73;;;;;;;2.44;100.00;98892.53;5027292;28;20236;-78
2023/03/15 05:46:19;;;;;;;15.10;5.10;;;;;;;2.38;100.00;98895.38;5027419;28;20190;-80
2023/03/15 05:48:47;;;;;;;11.07;5.67;;;;;;;2.37;100.00;98895.41;5030810;28;20325;-79
2023/03/15 05:51:17;;;;;;;12.83;4.50;;;;;;;2.34;100.00;98899.00;5024549;28;20209;-78
2023/03/15 05:53:46;;;;;;;11.00;4.50;;;;;;;2.11;100.00;98915.44;5055139;27;20193;-79
2023/03/15 05:56:16;;;;;;;12.30;4.53;;;;;;;2.19;100.00;98916.03;5152020;27;20186;-78
2023/03/15 05:58:50;;;;;;;9.77;4.77;;;;;;;2.17;100.00;98917.88;5152198;27;20201;-77
2023/03/15 06:01:18;;;;;;;13.97;7.10;;;;;;;2.25;100.00;98925.44;5101508;27;20205;-77
2023/03/15 06:03:48;;;;;;;12.30;5.67;;;;;;;2.41;100.00;98925.75;5152124;27;20258;-79
2023/03/15 06:06:18;;;;;;;12.43;4.93;;;;;;;2.30;100.00;98933.97;5151693;27;20193;-78
2023/03/15 06:08:46;;;;;;;14.50;5.23;;;;;;;2.44;100.00;98939.59;5146482;27;20193;-78
2023/03/15 06:11:14;;;;;;;10.67;3.50;;;;;;;2.06;100.00;98946.09;5153124;27;20190;-77
2023/03/15 06:13:42;;;;;;;11.10;4.50;;;;;;;2.05;100.00;98943.56;5148900;27;20210;-77
2023/03/15 06:16:11;;;;;;;14.47;4.50;;;;;;;1.96;100.00;98949.94;5083020;28;20188;-77
2023/03/15 06:18:39;;;;;;;14.97;7.37;;;;;;;2.02;100.00;98952.31;5092021;28;20219;-77
2023/03/15 06:21:09;;;;;;;12.60;5.43;;;;;;;2.11;100.00;98959.84;5094702;28;20195;-77
2023/03/15 06:23:43;;;;;;;10.60;4.70;;;;;;;1.84;100.00;98953.78;5089188;28;20196;-77
2023/03/15 06:26:13;;;;;;;11.47;4.17;;;;;;;1.91;100.00;98957.91;5055710;28;20225;-77
2023/03/15 06:28:53;;;;;;;16.37;4.30;;;;;;;2.06;100.00;98966.16;5090582;28;20352;-77
2023/03/15 06:31:21;;;;;;;11.80;4.90;;;;;;;2.09;100.00;98968.66;5062913;28;20199;-77
2023/03/15 06:33:49;;;;;;;12.97;4.50;;;;;;;1.79;100.00;98963.53;5102080;27;20212;-77
2023/03/15 06:36:17;;;;;;;10.00;4.20;;;;;;;1.86;100.00;98966.81;5145348;27;20228;-77
2023/03/15 06:38:47;;;;;;;11.17;4.40;;;;;;;2.23;100.00;98971.69;5145417;27;20238;-77
2023/03/15 06:41:15;;;;;;;10.27;4.83;;;;;;;2.22;100.00;98972.56;5125578;27;20186;-77
2023/03/15 06:43:44;;;;;;;11.73;6.23;;;;;;;2.38;100.00;98975.53;5126707;27;20201;-77
2023/03/15 06:46:12;;;;;;;20.87;9.03;;;;;;;2.49;100.00;98983.84;5126473;27;20190;-77
2023/03/15 06:48:41;;;;;;;12.43;5.07;;;;;;;2.36;100.00;98980.81;5129113;27;20224;-78
2023/03/15 06:51:09;;;;;;;7.97;5.07;;;;;;;2.20;100.00;98990.91;5126466;27;20190;-77
2023/03/15 06:53:38;;;;;;;13.73;6.37;;;;;;;2.47;100.00;98985.66;5135604;27;20605;-77
2023/03/15 06:56:08;;;;;;;18.77;8.10;;;;;;;2.47;100.00;98991.75;5130671;27;20263;-77
2023/03/15 06:58:36;;;;;;;16.87;7.33;;;;;;;2.61;100.00;99000.91;5129422;27;20231;-78
2023/03/15 07:01:05;;;;;;;12.87;7.57;;;;;;;2.68;100.00;99002.38;5049261;28;20280;-77
2023/03/15 07:03:35;;;;;;;12.03;5.70;;;;;;;2.73;100.00;98997.84;5047923;28;20205;-77
2023/03/15 07:06:05;;;;;;;10.67;5.50;;;;;;;2.65;100.00;99000.72;5045667;28;20216;-78
2023/03/15 07:08:36;;;;;;;12.07;5.87;;;;;;;2.71;100.00;99007.53;5045908;28;20205;-78
2023/03/15 07:11:05;;;;;;;10.80;5.00;;;;;;;2.87;100.00;99006.91;5000178;28;20284;-78
2023/03/15 07:13:35;;;;;;;9.60;5.80;;;;;;;2.72;100.00;99012.69;5052018;28;20687;-78
2023/03/15 07:16:04;;;;;;;15.03;6.07;;;;;;;2.69;100.00;99006.69;5046163;28;20220;-78
2023/03/15 07:18:33;;;;;;;8.63;5.30;;;;;;;2.33;100.00;99006.19;5046779;28;20292;-78
2023/03/15 07:21:04;;;;;;;11.27;5.20;;;;;;;2.58;100.00;99007.06;4990302;28;20187;-78
2023/03/15 07:23:34;;;;;;;11.47;5.63;;;;;;;2.62;100.00;99007.84;4989645;28;20199;-78
2023/03/15 07:26:02;;;;;;;9.03;4.97;;;;;;;2.65;100.00;99015.56;4984758;28;20207;-78
2023/03/15 07:28:30;;;;;;;12.40;6.37;;;;;;;2.65;100.00;99015.56;4987133;28;20261;-78
2023/03/15 07:31:02;;;;;;;13.50;6.30;;;;;;;2.65;100.00;99015.56;4983465;28;20199;-78
2023/03/15 07:33:34;;;;;;;11.63;6.40;;;;;;;2.75;100.00;99027.41;5037240;28;20292;-77
2023/03/15 07:36:05;;;;;;;14.57;6.50;;;;;;;2.78;100.00;99015.06;5068352;28;20216;-78
2023/03/15 07:38:34;;;;;;;15.70;6.80;;;;;;;2.86;100.00;99020.03;5033819;27;20602;-78
2023/03/15 07:41:04;;;;;;;11.57;6.60;;;;;;;2.74;100.00;99023.94;5127988;27;20194;-78
2023/03/15 07:43:33;;;;;;;10.23;5.83;;;;;;;2.84;100.00;99027.94;5131037;27;20193;-78
2023/03/15 07:46:03;;;;;;;12.60;6.70;;;;;;;2.86;100.00;99030.50;5127015;27;20190;-78
2023/03/15 07:48:31;;;;;;;14.53;6.77;;;;;;;2.94;100.00;99033.72;5126364;27;20672;-79
2023/03/15 07:50:59;;;;;;;15.07;6.83;;;;;;;2.78;100.00;99033.38;5125103;27;20268;-78
2023/03/15 07:53:28;;;;;;;13.97;6.57;;;;;;;2.82;100.00;99040.22;5134576;27;20202;-78
2023/03/15 07:55:57;;;;;;;9.10;6.33;;;;;;;2.86;100.00;99054.91;5127557;27;20211;-78
2023/03/15 07:58:26;;;;;;;11.50;7.07;;;;;;;2.74;100.00;99050.09;5131170;27;20186;-78
2023/03/15 08:00:56;;;;;;;10.87;6.80;;;;;;;2.82;100.00;99058.53;5129036;27;20194;-78
2023/03/15 08:03:27;;;;;;;10.20;6.57;;;;;;;2.87;100.00;99055.75;5133840;27;20187;-78
2023/03/15 08:05:55;;;;;;;12.30;7.10;;;;;;;3.00;100.00;99057.06;5124977;27;20266;-78
2023/03/15 08:08:25;;;;;;;10.57;6.77;;;;;;;3.06;100.00;99058.56;5127513;27;20218;-78
2023/03/15 08:10:54;;;;;;;9.00;6.17;;;;;;;3.06;100.00;99069.03;5124176;27;20203;-78
2023/03/15 08:13:23;;;;;;;13.00;7.57;;;;;;;2.69;100.00;99069.44;5129707;27;20198;-78
2023/03/15 08:15:51;;;;;;;8.53;5.57;;;;;;;2.45;100.00;99069.38;5123950;27;20245;-78
2023/03/15 08:18:20;;;;;;;8.77;5.43;;;;;;;2.17;100.00;99079.84;5126425;27;20243;-78
2023/03/15 08:20:49;;;;;;;8.30;5.13;;;;;;;2.31;100.00;99087.22;5127494;27;20197;-78
2023/03/15 08:23:18;;;;;;;7.57;3.47;;;;;;;2.23;100.00;99092.72;5130644;27;20190;-78
2023/03/15 08:25:46;;;;;;;7.70;3.53;;;;;;;2.27;100.00;99099.56;5130813;27;20235;-78
2023/03/15 08:28:15;;;;;;;7.70;3.20;;;;;;;2.38;100.00;99093.97;5128266;27;20183;-78
2023/03/15 08:30:43;;;;;;;5.90;3.67;;;;;;;2.11;100.00;99098.31;5125124;27;20270;-78
2023/03/15 08:33:12;;;;;;;4.63;3.30;;;;;;;2.25;100.00;99105.72;5129745;27;20182;-78
2023/03/15 08:35:41;;;;;;;6.17;3.27;;;;;;;2.65;100.00;99110.53;5128971;27;20210;-78
2023/03/15 08:38:11;;;;;;;9.60;4.77;;;;;;;2.80;100.00;99114.41;5124483;27;20194;-79
2023/03/15 08:40:41;;;;;;;11.93;5.80;;;;;;;2.79;100.00;99117.91;5130131;27;20305;-79
2023/03/15 08:43:09;;;;;;;11.30;6.17;;;;;;;2.98;100.00;99115.53;5129378;27;20205;-79
2023/03/15 08:45:38;;;;;;;11.37;6.47;;;;;;;3.08;100.00;99114.31;5123180;27;20235;-79
2023/03/15 08:48:24;;;;;;;11.00;6.03;;;;;;;3.04;100.00;99121.44;5128559;27;20202;-79
2023/03/15 08:50:52;;;;;;;13.20;6.83;;;;;;;2.99;100.00;99125.09;5128417;27;20202;-79
2023/03/15 08:53:21;;;;;;;9.93;5.40;;;;;;;3.16;100.00;99135.84;5125197;27;20259;-79
2023/03/15 08:55:50;;;;;;;10.03;5.60;;;;;;;3.17;100.00;99142.78;5126002;27;20251;-79
2023/03/15 08:58:18;;;;;;;9.03;4.10;;;;;;;3.16;100.00;99141.06;5092309;27;20212;-79
2023/03/15 09:00:49;;;;;;;6.63;4.17;;;;;;;3.27;100.00;99152.03;5126002;27;20191;-79
2023/03/15 09:03:18;;;;;;;6.73;3.60;;;;;;;3.43;100.00;99145.34;5130096;28;20651;-79
2023/03/15 09:05:46;;;;;;;6.93;3.77;;;;;;;3.51;100.00;99150.31;5132024;28;20197;-79
2023/03/15 09:08:15;;;;;;;3.93;3.43;;;;;;;3.46;100.00;99147.00;5133426;28;20235;-78
2023/03/15 09:10:45;;;;;;;3.53;2.63;;;;;;;3.33;100.00;99145.75;5130439;28;20198;-78
2023/03/15 09:13:13;;;;;;;3.03;2.70;;;;;;;3.19;100.00;99145.38;5130390;28;20221;-79
2023/03/15 09:15:42;;;;;;;3.90;3.30;;;;;;;3.40;100.00;99153.31;5127627;28;20187;-78
2023/03/15 09:18:10;;;;;;;4.07;3.33;;;;;;;3.54;100.00;99149.34;5125897;28;20187;-80
2023/03/15 09:20:38;;;;;;;5.73;2.90;;;;;;;3.53;100.00;99150.28;5122611;28;20199;-80
2023/03/15 09:23:08;;;;;;;4.60;3.17;;;;;;;3.36;100.00;99158.72;5124970;28;20194;-77
2023/03/15 09:25:37;;;;;;;3.43;2.93;;;;;;;3.56;100.00;99158.00;5124979;28;20191;-77
2023/03/15 09:28:08;;;;;;;3.77;2.97;;;;;;;3.87;100.00;99155.16;5133153;28;20186;-77
2023/03/15 09:30:38;;;;;;;4.20;2.90;;;;;;;4.10;100.00;99159.53;5130286;28;20191;-77
2023/03/15 09:33:08;;;;;;;4.57;2.70;;;;;;;4.28;100.00;99151.81;5132963;28;20187;-78
2023/03/15 09:35:36;;;;;;;5.20;2.90;;;;;;;4.30;100.00;99157.00;5128848;28;20190;-78
2023/03/15 09:38:05;;;;;;;3.20;2.50;;;;;;;4.42;100.00;99151.28;5130099;28;20222;-77
2023/03/15 09:40:35;;;;;;;2.33;2.07;;;;;;;4.45;100.00;99147.69;5128184;28;20229;-78
2023/03/15 09:43:22;;;;;;;2.43;2.10;;;;;;;4.35;100.00;99148.97;5130365;28;20194;-78
2023/03/15 09:46:08;;;;;;;2.83;2.43;;;;;;;4.37;100.00;99155.84;5131724;28;20187;-78
2023/03/15 09:48:44;;;;;;;2.57;2.30;;;;;;;4.27;100.00;99154.50;5130162;28;20251;-80
2023/03/15 09:51:16;;;;;;;3.60;2.23;;;;;;;4.26;100.00;99158.03;5135663;27;20190;-78
2023/03/15 09:53:55;;;;;;;2.90;2.30;;;;;;;4.60;100.00;99150.53;5133037;27;20198;-78
2023/03/15 09:56:27;;;;;;;3.30;2.50;;;;;;;4.82;100.00;99155.78;5149849;27;20213;-78
2023/03/15 09:59:00;;;;;;;3.03;2.57;;;;;;;5.26;100.00;99149.63;5147868;27;20212;-78
2023/03/15 10:01:32;;;;;;;3.73;3.27;;;;;;;5.31;100.00;99151.13;5150599;27;20266;-78
2023/03/15 10:04:05;;;;;;;3.23;2.60;;;;;;;5.65;100.00;99153.13;5156090;27;20201;-78
2023/03/15 10:06:36;;;;;;;4.63;2.60;;;;;;;5.74;100.00;99151.88;5149805;27;20185;-78
2023/03/15 10:09:13;;;;;;;2.20;2.00;;;;;;;5.76;100.00;99152.66;5151873;27;20216;-78
2023/03/15 10:11:50;;;;;;;3.00;2.07;;;;;;;5.85;100.00;99140.88;5150072;27;20233;-78
2023/03/15 10:14:27;;;;;;;3.83;2.13;;;;;;;6.02;100.00;99143.63;5154184;27;20190;-78
2023/03/15 10:16:55;;;;;;;4.80;4.17;;;;;;;5.87;100.00;99142.50;5150811;27;20218;-78
2023/03/15 10:19:33;;;;;;;3.33;2.10;;;;;;;6.36;100.00;99142.91;5155919;27;20238;-78
2023/03/15 10:22:10;;;;;;;3.23;1.70;;;;;;;6.55;100.00;99146.38;5111362;28;20202;-78
2023/03/15 10:24:44;;;;;;;3.07;1.77;;;;;;;6.70;100.00;99149.22;5108463;28;20224;-78
2023/03/15 10:27:19;;;;;;;2.57;1.57;;;;;;;6.73;100.00;99146.41;5070341;28;20265;-78
2023/03/15 10:29:52;;;;;;;2.47;1.60;;;;;;;6.65;100.00;99143.31;5066041;28;20192;-78
2023/03/15 10:32:25;;;;;;;2.90;1.73;;;;;;;6.60;100.00;99147.03;5072792;28;20185;-78
2023/03/15 10:34:56;;;;;;;3.00;1.70;;;;;;;6.51;100.00;99146.59;5065822;28;20197;-78
2023/03/15 10:37:25;;;;;;;4.97;2.00;;;;;;;6.25;100.00;99143.41;5072696;28;20643;-78
2023/03/15 10:39:56;;;;;;;2.90;1.70;;;;;;;6.10;100.00;99146.78;5079223;28;20230;-78
2023/03/15 10:42:29;;;;;;;2.03;1.77;;;;;;;5.86;100.00;99153.94;5110479;28;20244;-78
2023/03/15 10:45:14;;;;;;;2.60;1.70;;;;;;;5.72;100.00;99151.94;5124093;27;20648;-78
2023/03/15 10:47:44;;;;;;;2.30;1.47;;;;;;;5.69;100.00;99156.47;5153541;27;20193;-78
2023/03/15 10:50:28;;;;;;;2.37;1.77;;;;;;;5.71;100.00;99154.66;5153502;27;20238;-78
2023/03/15 10:52:58;;;;;;;1.83;1.63;;;;;;;5.46;100.00;99149.59;5157586;27;20186;-78
2023/03/15 10:55:33;;;;;;;4.27;1.67;;;;;;;5.45;100.00;99155.78;5152584;27;20679;-78
2023/03/15 10:58:19;;;;;;;1.73;1.60;;;;;;;5.31;100.00;99158.16;5147856;27;20213;-78
2023/03/15 11:00:58;;;;;;;2.03;1.60;;;;;;;5.11;100.00;99161.59;5156425;27;20194;-80
2023/03/15 11:03:28;;;;;;;2.57;1.40;;;;;;;5.23;100.00;99170.75;5148652;27;20201;-78
2023/03/15 11:05:58;;;;;;;3.47;2.03;;;;;;;5.30;100.00;99165.16;5150768;27;20194;-78
2023/03/15 11:08:38;;;;;;;1.80;1.30;;;;;;;5.80;100.00;99167.38;5154285;27;20185;-78
2023/03/15 11:11:08;;;;;;;2.47;1.40;;;;;;;6.27;100.00;99162.63;5144531;27;20270;-78
2023/03/15 11:13:38;;;;;;;1.40;1.30;;;;;;;6.13;100.00;99166.81;5147758;27;20656;-78
2023/03/15 11:16:20;;;;;;;2.63;1.60;;;;;;;6.10;100.00;99169.59;5153859;27;20471;-79
2023/03/15 11:18:52;;;;;;;3.00;1.60;;;;;;;6.57;100.00;99165.59;5151642;27;20296;-78
2023/03/15 11:21:24;;;;;;;2.00;1.50;;;;;;;7.41;100.00;99168.47;5108617;28;20238;-81
2023/03/15 11:23:54;;;;;;;2.13;1.57;;;;;;;7.42;100.00;99162.25;5109770;28;20279;-80
2023/03/15 11:26:24;;;;;;;2.23;1.60;;;;;;;7.40;100.00;99172.03;5100323;28;20202;-81
2023/03/15 11:29:04;;;;;;;1.97;1.60;;;;;;;6.89;100.00;99176.34;5108294;28;20198;-78
2023/03/15 11:31:35;;;;;;;2.90;1.53;;;;;;;6.73;100.00;99175.38;5112232;28;20187;-78
2023/03/15 11:34:08;;;;;;;1.87;1.53;;;;;;;7.28;100.00;99173.53;5107167;28;20199;-79
2023/03/15 11:36:41;;;;;;;2.33;1.50;;;;;;;7.70;100.00;99175.72;5105657;28;20187;-79
2023/03/15 11:39:14;;;;;;;1.73;1.30;;;;;;;7.92;100.00;99183.38;5126065;27;20233;-77
2023/03/15 11:41:51;;;;;;;2.70;1.53;;;;;;;8.06;100.00;99180.00;5150688;27;20189;-80
2023/03/15 11:44:27;;;;;;;2.10;1.40;;;;;;;7.64;100.00;99188.41;5155513;27;20193;-80